Time;durP1;ratioP1;P1;durP2;ratioP2;P2;SDS_P1;SDS_P2;PMS_P1;PMS_P2;Temp;Humidity;BMP_temperature;BMP_pressure;BME280_temperature;BME280_humidity;BME280_pressure;Samples;Min_cycle;Max_cycle;Signal;HPM_P1;HPM_P2
2021/11/06 00:02:29;;;;;;;59.70;25.35;;;;;;;4.10;100.00;99424.06;10470007;28;20067;-72
2021/11/06 00:07:32;;;;;;;52.90;23.80;;;;;;;4.12;100.00;99427.47;10469428;28;20052;-71
2021/11/06 00:12:36;;;;;;;56.92;24.08;;;;;;;4.15;100.00;99421.09;10479025;28;20494;-73
2021/11/06 00:17:41;;;;;;;53.92;23.98;;;;;;;4.19;100.00;99430.59;10477157;28;20047;-72
2021/11/06 00:23:21;;;;;;;54.20;23.98;;;;;;;4.22;100.00;99424.25;10478202;28;20039;-69
2021/11/06 00:28:24;;;;;;;46.10;22.33;;;;;;;4.25;100.00;99435.56;10478275;28;20406;-71
2021/11/06 00:33:28;;;;;;;45.20;21.60;;;;;;;4.28;100.00;99429.19;10478118;28;20047;-72
2021/11/06 00:38:32;;;;;;;47.53;22.65;;;;;;;4.31;100.00;99427.16;10479365;28;20101;-70
2021/11/06 00:43:35;;;;;;;46.20;21.65;;;;;;;4.36;100.00;99434.03;10479391;28;20078;-69
2021/11/06 00:48:39;;;;;;;42.05;20.02;;;;;;;4.41;100.00;99445.28;10458283;28;20049;-69
2021/11/06 00:53:42;;;;;;;37.53;18.30;;;;;;;4.44;100.00;99435.28;10457593;28;20075;-71
2021/11/06 00:58:45;;;;;;;38.38;17.77;;;;;;;4.47;100.00;99437.72;10477513;28;20381;-69
2021/11/06 01:03:50;;;;;;;29.50;16.40;;;;;;;4.51;100.00;99449.09;10476909;28;20050;-69
2021/11/06 01:08:53;;;;;;;39.05;18.15;;;;;;;4.53;100.00;99451.66;10475195;28;20049;-69
2021/11/06 01:13:56;;;;;;;32.92;17.00;;;;;;;4.55;100.00;99455.09;10458482;28;20135;-69
2021/11/06 01:19:00;;;;;;;34.20;18.35;;;;;;;4.56;100.00;99452.31;10475750;28;20043;-69
2021/11/06 01:24:04;;;;;;;30.38;17.13;;;;;;;4.58;100.00;99453.06;10456062;28;20048;-69
2021/11/06 01:29:07;;;;;;;29.52;16.70;;;;;;;4.57;100.00;99443.34;10457335;28;20044;-69
2021/11/06 01:34:12;;;;;;;32.03;16.33;;;;;;;4.59;100.00;99448.56;10476319;28;20068;-69
2021/11/06 01:39:16;;;;;;;28.75;16.58;;;;;;;4.59;100.00;99448.56;10472407;28;20071;-69
2021/11/06 01:44:19;;;;;;;27.73;14.98;;;;;;;4.59;100.00;99444.13;10471732;28;20043;-70
2021/11/06 01:49:23;;;;;;;30.00;15.07;;;;;;;4.61;100.00;99441.34;10473742;28;20048;-70
2021/11/06 01:54:27;;;;;;;27.40;14.70;;;;;;;4.59;100.00;99438.78;10477135;28;20060;-70
2021/11/06 01:59:31;;;;;;;29.85;15.13;;;;;;;4.64;100.00;99441.16;10474149;28;20044;-70
2021/11/06 02:04:36;;;;;;;29.73;14.38;;;;;;;4.63;100.00;99444.78;10474060;28;20037;-69
2021/11/06 02:09:39;;;;;;;23.38;13.00;;;;;;;4.60;100.00;99435.16;10458363;28;20059;-70
2021/11/06 02:14:42;;;;;;;18.98;10.82;;;;;;;4.60;100.00;99435.16;10474827;28;20040;-69
2021/11/06 02:19:46;;;;;;;25.02;12.98;;;;;;;4.62;100.00;99437.72;10455534;28;20053;-70
2021/11/06 02:24:53;;;;;;;20.63;12.10;;;;;;;4.59;100.00;99428.09;10457241;28;20840;-70
2021/11/06 02:29:56;;;;;;;24.73;13.52;;;;;;;4.60;100.00;99431.59;10471945;28;20151;-70
2021/11/06 02:34:59;;;;;;;21.08;11.40;;;;;;;4.58;100.00;99434.38;10458107;28;20051;-70
2021/11/06 02:40:53;;;;;;;24.60;13.35;;;;;;;4.59;100.00;99440.56;10475336;28;20127;-70
2021/11/06 02:45:57;;;;;;;24.35;13.60;;;;;;;4.59;100.00;99438.78;10473978;28;20464;-71
2021/11/06 02:51:00;;;;;;;22.00;12.30;;;;;;;4.58;100.00;99437.06;10454350;28;20052;-69
2021/11/06 02:56:04;;;;;;;23.30;12.52;;;;;;;4.60;100.00;99435.16;10453101;28;20045;-68
2021/11/06 03:01:08;;;;;;;21.48;12.93;;;;;;;4.61;100.00;99442.22;10472032;28;20045;-68
2021/11/06 03:06:11;;;;;;;22.15;12.65;;;;;;;4.62;100.00;99438.59;10470579;28;20051;-68
2021/11/06 03:11:15;;;;;;;19.67;12.40;;;;;;;4.63;100.00;99434.97;10470566;28;20068;-69
2021/11/06 03:16:19;;;;;;;25.73;14.40;;;;;;;4.65;100.00;99442.88;10470720;28;20037;-68
2021/11/06 03:21:23;;;;;;;23.75;13.80;;;;;;;4.65;100.00;99447.31;10471251;28;20046;-72
2021/11/06 03:26:26;;;;;;;27.92;14.70;;;;;;;4.65;100.00;99450.88;10471213;28;20422;-71
2021/11/06 03:31:31;;;;;;;28.17;15.07;;;;;;;4.65;100.00;99452.66;10454103;28;20051;-71
2021/11/06 03:36:34;;;;;;;29.67;14.90;;;;;;;4.65;100.00;99460.66;10469119;28;20144;-71
2021/11/06 03:41:37;;;;;;;25.58;14.75;;;;;;;4.63;100.00;99461.66;10467876;28;20110;-71
2021/11/06 03:46:42;;;;;;;28.63;14.57;;;;;;;4.62;100.00;99473.28;10469471;28;20870;-71
2021/11/06 03:51:45;;;;;;;26.70;14.95;;;;;;;4.60;100.00;99469.84;10469994;28;20037;-71
2021/11/06 03:56:48;;;;;;;29.67;16.63;;;;;;;4.60;100.00;99476.97;10467323;28;20044;-71
2021/11/06 04:01:53;;;;;;;26.17;14.52;;;;;;;4.57;100.00;99467.38;10466919;28;20040;-70
2021/11/06 04:06:56;;;;;;;28.70;15.30;;;;;;;4.56;100.00;99472.81;10471371;28;20036;-71
2021/11/06 04:11:59;;;;;;;26.08;15.35;;;;;;;4.55;100.00;99474.59;10471802;28;20095;-71
2021/11/06 04:17:04;;;;;;;27.73;15.23;;;;;;;4.53;100.00;99484.53;10469084;28;20053;-71
2021/11/06 04:22:07;;;;;;;25.38;13.77;;;;;;;4.52;100.00;99484.63;10470426;28;20076;-71
2021/11/06 04:27:10;;;;;;;31.67;15.82;;;;;;;4.51;100.00;99473.09;10469563;28;20043;-71
2021/11/06 04:32:14;;;;;;;30.23;16.10;;;;;;;4.50;100.00;99476.72;10453657;28;20048;-71
2021/11/06 04:37:18;;;;;;;29.88;15.00;;;;;;;4.48;100.00;99475.97;10471431;28;20127;-71
2021/11/06 04:42:21;;;;;;;28.90;14.98;;;;;;;4.41;100.00;99478.16;10470800;28;20036;-71
2021/11/06 04:47:25;;;;;;;32.55;15.90;;;;;;;4.37;100.00;99475.78;10468791;28;20250;-71
2021/11/06 04:52:31;;;;;;;31.85;15.85;;;;;;;4.31;100.00;99482.34;10451274;28;20041;-71
2021/11/06 04:57:35;;;;;;;33.45;16.50;;;;;;;4.21;100.00;99497.22;10458523;28;20056;-69
2021/11/06 05:02:39;;;;;;;37.83;17.58;;;;;;;4.15;100.00;99498.44;10475476;28;20482;-70
2021/11/06 05:07:43;;;;;;;35.60;18.08;;;;;;;4.11;100.00;99503.13;10458360;28;20056;-70
2021/11/06 05:12:48;;;;;;;39.35;18.77;;;;;;;4.03;100.00;99491.19;10473631;28;20057;-71
2021/11/06 05:17:54;;;;;;;43.75;19.08;;;;;;;3.96;100.00;99491.56;10453034;28;20044;-70
2021/11/06 05:22:57;;;;;;;42.42;20.10;;;;;;;3.88;100.00;99491.16;10471921;28;20066;-71
2021/11/06 05:28:01;;;;;;;43.63;21.55;;;;;;;3.87;100.00;99500.09;10472209;28;20047;-70
2021/11/06 05:33:06;;;;;;;55.58;23.38;;;;;;;3.83;100.00;99503.91;10471259;28;20524;-71
2021/11/06 05:38:09;;;;;;;57.67;22.80;;;;;;;3.79;100.00;99505.06;10509750;28;20051;-70
2021/11/06 05:43:12;;;;;;;50.78;22.33;;;;;;;3.74;100.00;99505.31;10512097;28;20041;-70
2021/11/06 05:48:16;;;;;;;55.13;25.98;;;;;;;3.72;100.00;99499.22;10496231;28;20046;-71
2021/11/06 05:53:20;;;;;;;52.03;24.80;;;;;;;3.77;100.00;99504.28;10507008;28;20066;-71
2021/11/06 05:58:41;;;;;;;47.88;24.33;;;;;;;3.82;100.00;99518.22;10508657;28;20044;-71
2021/11/06 06:03:46;;;;;;;48.03;23.85;;;;;;;3.80;100.00;99515.59;10505127;28;20183;-70
2021/11/06 06:08:49;;;;;;;55.13;25.98;;;;;;;3.81;100.00;99505.81;10485645;28;20835;-70
2021/11/06 06:13:52;;;;;;;49.35;25.15;;;;;;;3.84;100.00;99505.63;10514759;28;20090;-70
2021/11/06 06:18:57;;;;;;;52.85;26.23;;;;;;;3.84;100.00;99506.50;10496181;28;20054;-70
2021/11/06 06:24:00;;;;;;;59.47;27.67;;;;;;;3.83;100.00;99515.44;10513470;28;20428;-70
2021/11/06 06:29:03;;;;;;;59.38;26.83;;;;;;;3.85;100.00;99515.34;10514587;28;20047;-70
2021/11/06 06:34:37;;;;;;;54.50;26.67;;;;;;;3.88;100.00;99524.97;10469179;28;20055;-70
2021/11/06 06:39:42;;;;;;;48.58;24.35;;;;;;;3.92;100.00;99543.38;10509632;28;20120;-72
2021/11/06 06:44:46;;;;;;;56.97;26.65;;;;;;;3.96;100.00;99544.88;10492869;28;20841;-72
2021/11/06 06:49:50;;;;;;;50.05;24.98;;;;;;;4.04;100.00;99546.25;10511054;28;20044;-73
2021/11/06 06:54:54;;;;;;;45.13;24.70;;;;;;;4.10;100.00;99556.53;10510747;28;20055;-68
2021/11/06 06:59:57;;;;;;;43.95;25.48;;;;;;;4.17;100.00;99565.91;10432271;28;20059;-69
2021/11/06 07:05:01;;;;;;;46.90;24.08;;;;;;;4.21;100.00;99561.22;10426817;28;20411;-68
2021/11/06 07:10:05;;;;;;;44.83;24.00;;;;;;;4.26;100.00;99567.13;10433918;28;20051;-69
2021/11/06 07:15:09;;;;;;;45.28;24.80;;;;;;;4.31;100.00;99568.56;10428826;28;20400;-66
2021/11/06 07:20:15;;;;;;;45.35;24.00;;;;;;;4.36;100.00;99575.44;10414643;28;20045;-70
2021/11/06 07:25:20;;;;;;;51.67;24.13;;;;;;;4.39;100.00;99578.78;10432522;28;20088;-69
2021/11/06 07:30:24;;;;;;;51.55;26.70;;;;;;;4.43;100.00;99587.44;10422048;28;20841;-66
2021/11/06 07:35:29;;;;;;;42.70;25.50;;;;;;;4.49;100.00;99592.44;10426103;28;20041;-69
2021/11/06 07:40:32;;;;;;;33.67;21.92;;;;;;;4.58;100.00;99585.69;10425898;28;20482;-68
2021/11/06 07:45:35;;;;;;;25.77;16.88;;;;;;;4.70;100.00;99584.94;10416843;28;20131;-65
2021/11/06 07:50:40;;;;;;;26.25;17.98;;;;;;;4.85;100.00;99580.44;10402096;28;20055;-68
2021/11/06 07:55:43;;;;;;;18.13;14.05;;;;;;;5.05;100.00;99570.28;10418563;28;20045;-68
2021/11/06 08:00:46;;;;;;;19.95;13.82;;;;;;;5.23;100.00;99555.75;10418457;28;20144;-67
2021/11/06 08:05:52;;;;;;;15.75;12.32;;;;;;;5.53;100.00;99544.03;10418553;28;20040;-65
2021/11/06 08:10:56;;;;;;;17.48;13.90;;;;;;;5.77;100.00;99543.34;10426181;28;20061;-67
2021/11/06 08:16:00;;;;;;;20.10;13.50;;;;;;;5.97;100.00;99525.97;10420993;28;20045;-65
2021/11/06 08:21:04;;;;;;;22.27;14.98;;;;;;;5.86;100.00;99529.34;10398401;28;20075;-64
2021/11/06 08:26:08;;;;;;;18.73;13.88;;;;;;;5.83;100.00;99540.25;10415811;28;20937;-67
2021/11/06 08:31:11;;;;;;;22.30;15.07;;;;;;;5.83;100.00;99529.56;10421108;28;20045;-66
2021/11/06 08:36:15;;;;;;;19.83;13.93;;;;;;;5.86;100.00;99524.00;10423708;28;21127;-66
2021/11/06 08:41:18;;;;;;;16.70;13.35;;;;;;;5.90;100.00;99521.13;10425300;28;20052;-66
2021/11/06 08:46:21;;;;;;;17.50;13.20;;;;;;;5.96;100.00;99526.03;10421238;28;20063;-66
2021/11/06 08:51:26;;;;;;;17.90;13.32;;;;;;;6.01;100.00;99526.63;10428466;28;20061;-74
2021/11/06 08:56:29;;;;;;;19.70;12.68;;;;;;;6.07;100.00;99522.69;10423047;28;20916;-70
2021/11/06 09:01:32;;;;;;;18.38;12.43;;;;;;;6.15;100.00;99523.00;10424314;28;20110;-67
2021/11/06 09:06:38;;;;;;;16.92;12.70;;;;;;;6.22;100.00;99524.31;10439174;28;20552;-70
2021/11/06 09:11:42;;;;;;;18.98;12.95;;;;;;;6.33;100.00;99523.53;10434897;28;20045;-66
2021/11/06 09:16:46;;;;;;;14.93;11.15;;;;;;;6.66;100.00;99532.84;10421737;28;20499;-74
2021/11/06 09:21:50;;;;;;;17.52;12.10;;;;;;;6.67;100.00;99531.03;10429260;28;20052;-67
2021/11/06 09:26:53;;;;;;;14.07;12.23;;;;;;;6.73;100.00;99526.09;10422353;28;20929;-67
2021/11/06 09:31:56;;;;;;;18.58;11.18;;;;;;;6.84;100.00;99528.00;10422121;28;20049;-67
2021/11/06 09:37:01;;;;;;;13.38;10.40;;;;;;;6.97;100.00;99529.78;10423708;28;20064;-64
2021/11/06 09:42:06;;;;;;;14.85;10.10;;;;;;;7.02;100.00;99531.16;10425351;28;20044;-67
2021/11/06 09:47:12;;;;;;;12.90;9.95;;;;;;;7.14;100.00;99525.88;10432065;28;21200;-66
2021/11/06 09:52:19;;;;;;;13.77;9.75;;;;;;;7.23;100.00;99526.06;10422966;28;20053;-67
2021/11/06 09:57:22;;;;;;;12.93;9.27;;;;;;;7.32;100.00;99521.00;10435910;28;20513;-69
2021/11/06 10:02:25;;;;;;;11.50;7.72;;;;;;;7.46;100.00;99517.31;10420651;28;20059;-70
2021/11/06 10:07:29;;;;;;;9.60;6.72;;;;;;;7.64;100.00;99510.56;10423082;28;20087;-67
2021/11/06 10:12:49;;;;;;;11.52;6.72;;;;;;;7.71;100.00;99517.16;10422000;28;20141;-67
2021/11/06 10:17:53;;;;;;;10.68;5.40;;;;;;;7.88;100.00;99501.63;10419089;28;20095;-69
2021/11/06 10:23:00;;;;;;;7.53;4.72;;;;;;;8.00;100.00;99500.69;10405104;28;20465;-70
2021/11/06 10:28:10;;;;;;;6.77;4.73;;;;;;;8.10;100.00;99490.09;10404144;28;20045;-65
2021/11/06 10:33:15;;;;;;;7.68;4.55;;;;;;;8.17;100.00;99506.59;10423783;28;20039;-67
2021/11/06 10:38:22;;;;;;;9.32;4.30;;;;;;;8.22;100.00;99493.63;10405837;28;20053;-67
2021/11/06 10:43:27;;;;;;;6.57;4.13;;;;;;;8.15;100.00;99489.72;10417310;28;20187;-68
2021/11/06 10:48:33;;;;;;;6.45;3.80;;;;;;;8.24;100.00;99486.31;10420153;28;20044;-68
2021/11/06 10:53:43;;;;;;;5.95;3.30;;;;;;;8.25;100.00;99463.88;10426481;28;20037;-68
2021/11/06 10:58:49;;;;;;;5.32;3.35;;;;;;;8.35;100.00;99455.94;10420269;28;20049;-68
2021/11/06 11:04:00;;;;;;;4.25;2.75;;;;;;;8.42;100.00;99450.94;10419511;28;20061;-68
2021/11/06 11:09:08;;;;;;;5.33;3.10;;;;;;;8.53;100.00;99448.28;10418741;28;20055;-68
2021/11/06 11:14:14;;;;;;;6.60;3.10;;;;;;;8.72;100.00;99454.88;10421670;28;20833;-68
2021/11/06 11:19:18;;;;;;;4.88;2.65;;;;;;;8.85;100.00;99441.28;10419289;28;20086;-68
2021/11/06 11:24:22;;;;;;;6.15;2.30;;;;;;;9.02;100.00;99430.00;10420969;28;20047;-71
2021/11/06 11:29:29;;;;;;;7.45;2.70;;;;;;;9.10;100.00;99427.53;10418085;28;20048;-71
2021/11/06 11:34:33;;;;;;;5.20;2.30;;;;;;;9.16;100.00;99423.47;10425740;28;20048;-71
2021/11/06 11:39:39;;;;;;;4.78;2.50;;;;;;;9.18;100.00;99408.09;10401081;28;20196;-70
2021/11/06 11:45:27;;;;;;;4.65;2.35;;;;;;;9.18;100.00;99409.91;10418773;28;20061;-70
2021/11/06 11:50:35;;;;;;;6.88;2.15;;;;;;;9.34;100.00;99401.44;10414829;28;20380;-72
2021/11/06 11:55:42;;;;;;;3.05;2.08;;;;;;;9.43;100.00;99406.03;10402671;28;20376;-72
2021/11/06 12:00:48;;;;;;;3.83;1.90;;;;;;;9.58;100.00;99416.47;10417961;28;20534;-72
2021/11/06 12:05:51;;;;;;;5.63;2.25;;;;;;;9.69;100.00;99402.97;10421415;28;20047;-72
2021/11/06 12:11:00;;;;;;;5.70;2.00;;;;;;;9.68;100.00;99403.94;10408058;28;20068;-72
2021/11/06 12:16:06;;;;;;;5.50;1.90;;;;;;;9.73;100.00;99393.63;10427142;28;20513;-72
2021/11/06 12:21:32;;;;;;;3.55;2.00;;;;;;;9.83;100.00;99383.75;10422347;28;20131;-71
2021/11/06 12:26:48;;;;;;;5.25;2.00;;;;;;;9.94;100.00;99377.47;10425329;28;20068;-71
2021/11/06 12:31:55;;;;;;;5.20;1.92;;;;;;;10.02;100.00;99374.09;10424583;28;20819;-71
2021/11/06 12:36:58;;;;;;;2.72;1.67;;;;;;;10.09;100.00;99360.94;10422594;28;20075;-69
2021/11/06 12:42:11;;;;;;;2.42;1.42;;;;;;;10.11;100.00;99356.28;10422575;28;20049;-69
2021/11/06 12:47:14;;;;;;;5.07;1.80;;;;;;;10.21;100.00;99359.00;10407373;28;20049;-70
2021/11/06 12:52:19;;;;;;;4.20;1.58;;;;;;;10.21;100.00;99342.84;10405433;28;20111;-69
2021/11/06 12:57:35;;;;;;;3.65;1.60;;;;;;;10.11;100.00;99334.75;10407374;28;20049;-69
2021/11/06 13:02:50;;;;;;;4.20;1.60;;;;;;;10.04;100.00;99334.44;10407738;28;20418;-72
2021/11/06 13:07:53;;;;;;;3.60;1.60;;;;;;;10.00;100.00;99333.84;10403374;28;20083;-69
2021/11/06 13:13:10;;;;;;;5.20;1.80;;;;;;;9.83;100.00;99329.94;10366792;28;20058;-67
2021/11/06 13:18:16;;;;;;;5.03;1.98;;;;;;;9.84;100.00;99331.63;10383972;28;20551;-68
2021/11/06 13:23:22;;;;;;;3.33;1.70;;;;;;;9.74;100.00;99325.34;10390326;28;20048;-67
2021/11/06 13:28:28;;;;;;;5.00;2.17;;;;;;;9.80;100.00;99327.53;10393574;28;20859;-66
2021/11/06 13:33:33;;;;;;;3.45;2.10;;;;;;;9.77;100.00;99310.78;10399134;28;20067;-69
2021/11/06 13:38:40;;;;;;;5.93;2.05;;;;;;;9.77;100.00;99308.94;10381665;28;20046;-69
2021/11/06 13:43:50;;;;;;;3.70;2.20;;;;;;;9.64;100.00;99309.16;10391480;28;20067;-69
2021/11/06 13:49:12;;;;;;;5.13;2.28;;;;;;;9.63;100.00;99302.09;10379968;28;20591;-69
2021/11/06 13:54:16;;;;;;;;;;;;;;;9.73;100.00;99301.28;10383938;28;20041;-70
2021/11/06 13:59:32;;;;;;;5.05;2.35;;;;;;;9.70;100.00;99305.09;10364013;28;20770;-69
2021/11/06 14:04:39;;;;;;;4.07;2.40;;;;;;;9.59;100.00;99292.56;10375905;28;20056;-67
2021/11/06 14:09:51;;;;;;;4.40;2.55;;;;;;;9.46;100.00;99290.09;10394476;28;20081;-68
2021/11/06 14:14:58;;;;;;;6.75;3.20;;;;;;;9.33;100.00;99284.91;10404208;28;20059;-69
2021/11/06 14:20:01;;;;;;;6.00;2.88;;;;;;;9.41;100.00;99292.34;10416140;28;20431;-68
2021/11/06 14:25:06;;;;;;;5.63;2.75;;;;;;;9.30;100.00;99279.78;10417565;28;20041;-67
2021/11/06 14:30:14;;;;;;;5.03;2.70;;;;;;;9.29;100.00;99271.88;10401689;28;20475;-66
2021/11/06 14:35:29;;;;;;;4.90;3.13;;;;;;;9.22;100.00;99271.53;10419692;28;20045;-67
2021/11/06 14:40:34;;;;;;;6.87;4.87;;;;;;;9.24;100.00;99269.59;10420470;28;20049;-66
2021/11/06 14:45:40;;;;;;;9.23;5.47;;;;;;;9.21;100.00;99268.00;10431155;28;20057;-71
2021/11/06 14:50:43;;;;;;;10.55;5.63;;;;;;;8.98;100.00;99274.50;10413292;28;20049;-71
2021/11/06 14:55:51;;;;;;;10.00;5.50;;;;;;;8.79;100.00;99258.09;10427690;28;20930;-69
2021/11/06 15:01:02;;;;;;;8.82;5.68;;;;;;;8.57;100.00;99259.03;10433842;28;20739;-67
2021/11/06 15:06:10;;;;;;;9.20;5.50;;;;;;;8.45;100.00;99251.97;10404515;28;20055;-67
2021/11/06 15:11:17;;;;;;;11.88;6.70;;;;;;;8.28;100.00;99232.75;10421135;28;20072;-67
2021/11/06 15:16:34;;;;;;;8.38;6.03;;;;;;;8.14;100.00;99233.03;10422977;28;20222;-71
2021/11/06 15:21:38;;;;;;;9.48;6.47;;;;;;;7.98;100.00;99234.25;10425042;28;20115;-68
2021/11/06 15:26:43;;;;;;;13.18;6.57;;;;;;;7.79;100.00;99218.81;10401624;28;20079;-69
2021/11/06 15:31:49;;;;;;;11.50;7.30;;;;;;;7.65;100.00;99219.91;10420578;28;20510;-68
2021/11/06 15:36:54;;;;;;;13.07;7.90;;;;;;;7.49;100.00;99222.97;10408971;28;20052;-68
2021/11/06 15:41:57;;;;;;;14.13;8.45;;;;;;;7.35;100.00;99221.38;10400236;28;20506;-68
2021/11/06 15:47:01;;;;;;;14.13;8.73;;;;;;;7.14;100.00;99207.84;10414400;28;20037;-68
2021/11/06 15:52:08;;;;;;;12.27;8.88;;;;;;;6.98;100.00;99210.88;10416330;28;20136;-69
2021/11/06 15:57:12;;;;;;;13.82;9.07;;;;;;;6.86;100.00;99215.34;10416394;28;20067;-68
2021/11/06 16:02:16;;;;;;;16.30;10.00;;;;;;;6.69;100.00;99224.66;10408123;28;20062;-68
2021/11/06 16:07:20;;;;;;;17.38;10.35;;;;;;;6.54;100.00;99239.19;10413960;28;20422;-68
2021/11/06 16:12:24;;;;;;;18.33;11.07;;;;;;;6.41;100.00;99242.78;10436956;28;20076;-68
2021/11/06 16:17:29;;;;;;;17.23;11.85;;;;;;;6.33;100.00;99245.19;10394490;28;20171;-68
2021/11/06 16:22:34;;;;;;;16.60;11.82;;;;;;;6.24;100.00;99236.00;10389466;28;20495;-68
2021/11/06 16:27:37;;;;;;;19.17;13.02;;;;;;;6.14;100.00;99230.50;10405446;28;20466;-67
2021/11/06 16:32:43;;;;;;;18.48;14.00;;;;;;;6.00;100.00;99233.34;10428454;28;20060;-68
2021/11/06 16:37:47;;;;;;;20.85;14.20;;;;;;;5.88;100.00;99232.38;10424679;28;20179;-68
2021/11/06 16:42:50;;;;;;;21.63;14.32;;;;;;;5.68;100.00;99223.13;10430081;28;20053;-69
2021/11/06 16:47:55;;;;;;;21.85;14.65;;;;;;;5.56;100.00;99219.50;10431127;28;20451;-68
2021/11/06 16:52:58;;;;;;;24.48;15.93;;;;;;;5.44;100.00;99210.56;10415811;28;20061;-69
2021/11/06 16:58:03;;;;;;;24.20;16.15;;;;;;;5.38;100.00;99211.84;10416107;28;20166;-69
2021/11/06 17:03:08;;;;;;;27.02;17.27;;;;;;;5.36;100.00;99218.25;10437120;28;20051;-69
2021/11/06 17:08:26;;;;;;;26.15;17.88;;;;;;;5.25;100.00;99211.84;10438984;28;20051;-69
2021/11/06 17:13:30;;;;;;;27.60;18.85;;;;;;;5.21;100.00;99229.06;10366856;28;20059;-68
2021/11/06 17:18:34;;;;;;;29.58;19.42;;;;;;;5.17;100.00;99224.88;10383775;28;20837;-68
2021/11/06 17:23:41;;;;;;;31.58;20.50;;;;;;;5.13;100.00;99223.38;10388971;28;20120;-69
2021/11/06 17:28:44;;;;;;;27.88;19.25;;;;;;;5.08;100.00;99217.53;10393730;28;20076;-68
2021/11/06 17:33:50;;;;;;;29.85;19.15;;;;;;;5.06;100.00;99219.44;10402442;28;20048;-68
2021/11/06 17:38:53;;;;;;;30.08;18.65;;;;;;;5.04;100.00;99208.88;10399171;28;20041;-70
2021/11/06 17:44:00;;;;;;;30.23;19.98;;;;;;;5.00;100.00;99219.88;10380740;28;20045;-68
2021/11/06 17:49:05;;;;;;;29.58;19.20;;;;;;;4.98;100.00;99225.31;10394415;28;20139;-68
2021/11/06 17:54:11;;;;;;;28.08;19.08;;;;;;;4.96;100.00;99215.69;10386206;28;20097;-68
2021/11/06 17:59:14;;;;;;;29.83;19.77;;;;;;;4.91;100.00;99205.34;10298130;23;20062;-76
2021/11/06 18:04:19;;;;;;;28.33;19.25;;;;;;;4.85;100.00;99219.09;10272844;28;20567;-77
2021/11/06 18:09:25;;;;;;;28.42;19.83;;;;;;;4.84;100.00;99212.91;10254841;28;20047;-78
2021/11/06 18:14:28;;;;;;;28.15;18.58;;;;;;;4.82;100.00;99197.97;10227031;28;20063;-77
2021/11/06 18:19:33;;;;;;;27.60;18.70;;;;;;;4.80;100.00;99197.22;10230394;28;20453;-76
2021/11/06 18:24:36;;;;;;;31.55;18.90;;;;;;;4.74;100.00;99185.13;10250148;28;20126;-77
2021/11/06 18:29:39;;;;;;;29.38;18.88;;;;;;;4.68;100.00;99175.75;10224018;28;20054;-79
2021/11/06 18:34:43;;;;;;;28.60;19.48;;;;;;;4.61;100.00;99169.97;10225412;28;20370;-79
2021/11/06 18:39:48;;;;;;;30.48;19.75;;;;;;;4.60;100.00;99164.72;10247708;28;20491;-76
2021/11/06 18:44:55;;;;;;;25.58;18.65;;;;;;;4.55;100.00;99161.53;10229537;28;20097;-76
2021/11/06 18:50:00;;;;;;;29.40;19.55;;;;;;;4.50;100.00;99150.28;10278712;28;20154;-76
2021/11/06 18:55:04;;;;;;;26.83;19.38;;;;;;;4.45;100.00;99132.81;10239062;28;20058;-79
2021/11/06 19:00:09;;;;;;;32.17;21.67;;;;;;;4.40;100.00;99123.41;10278920;28;20797;-77
2021/11/06 19:05:14;;;;;;;28.17;19.10;;;;;;;4.38;100.00;99125.31;10281363;28;20065;-76
2021/11/06 19:10:19;;;;;;;30.17;20.55;;;;;;;4.35;100.00;99129.03;10279341;28;20042;-78
2021/11/06 19:15:25;;;;;;;30.17;20.52;;;;;;;4.29;100.00;99119.63;10277530;28;20415;-75
2021/11/06 19:20:35;;;;;;;30.75;20.17;;;;;;;4.24;100.00;99119.09;10300709;28;20065;-75
2021/11/06 19:25:38;;;;;;;34.00;21.17;;;;;;;4.18;100.00;99124.84;10296764;28;20047;-76
2021/11/06 19:30:41;;;;;;;30.02;20.05;;;;;;;4.18;100.00;99110.66;10280635;28;20070;-75
2021/11/06 19:35:47;;;;;;;36.92;21.48;;;;;;;4.17;100.00;99107.16;10279205;28;20054;-76
2021/11/06 19:40:51;;;;;;;33.55;20.90;;;;;;;4.18;100.00;99103.50;10282953;28;20050;-75
2021/11/06 19:45:54;;;;;;;36.15;20.20;;;;;;;4.23;100.00;99087.22;10274022;28;20565;-78
2021/11/06 19:51:00;;;;;;;32.10;20.80;;;;;;;4.19;100.00;99091.88;10281600;28;20054;-75
2021/11/06 19:56:03;;;;;;;30.75;20.58;;;;;;;4.15;100.00;99093.91;10282038;28;20586;-76
2021/11/06 20:01:07;;;;;;;32.70;20.52;;;;;;;4.13;100.00;99084.31;10276035;28;20209;-76
2021/11/06 20:06:12;;;;;;;29.38;20.90;;;;;;;4.15;100.00;99071.72;10280180;28;20197;-73
2021/11/06 20:11:15;;;;;;;29.90;19.92;;;;;;;4.14;100.00;99064.69;10263661;28;20512;-77
2021/11/06 20:16:19;;;;;;;30.23;20.08;;;;;;;4.11;100.00;99071.09;10267881;28;20078;-75
2021/11/06 20:21:25;;;;;;;27.10;19.65;;;;;;;4.13;100.00;99062.97;10264086;28;20499;-75
2021/11/06 20:26:32;;;;;;;25.00;18.58;;;;;;;4.20;100.00;99053.56;10288438;28;20422;-76
2021/11/06 20:31:37;;;;;;;25.45;18.27;;;;;;;4.21;100.00;99041.94;10283215;28;20070;-76
2021/11/06 20:36:42;;;;;;;24.75;17.48;;;;;;;4.25;100.00;99043.47;10278636;28;20147;-76
2021/11/06 20:41:46;;;;;;;24.15;16.30;;;;;;;4.28;100.00;99040.59;10293983;28;20078;-78
2021/11/06 20:46:50;;;;;;;23.70;16.58;;;;;;;4.28;100.00;99035.25;10286908;28;20050;-76
2021/11/06 20:51:56;;;;;;;21.80;15.65;;;;;;;4.30;100.00;99022.63;10269158;28;20133;-78
2021/11/06 20:57:00;;;;;;;23.10;14.25;;;;;;;4.36;100.00;99020.53;10293971;28;20627;-76
2021/11/06 21:02:03;;;;;;;20.88;15.10;;;;;;;4.40;100.00;99014.03;10295231;28;20050;-76
2021/11/06 21:07:08;;;;;;;20.50;14.40;;;;;;;4.43;100.00;99011.97;10288830;28;20074;-73
2021/11/06 21:12:18;;;;;;;21.33;13.65;;;;;;;4.48;100.00;99012.50;10291301;28;20559;-74
2021/11/06 21:17:42;;;;;;;21.10;13.63;;;;;;;4.55;100.00;99012.91;10291075;28;20050;-74
2021/11/06 21:22:52;;;;;;;18.67;13.50;;;;;;;4.58;100.00;99015.38;10291631;28;20125;-72
2021/11/06 21:27:56;;;;;;;16.38;11.82;;;;;;;4.67;100.00;99018.34;10284974;28;20169;-75
2021/11/06 21:33:00;;;;;;;15.95;11.13;;;;;;;4.74;100.00;99019.63;10276020;28;20074;-73
2021/11/06 21:38:09;;;;;;;17.02;11.27;;;;;;;4.79;100.00;99012.13;10293593;28;20507;-76
2021/11/06 21:43:14;;;;;;;19.42;12.07;;;;;;;4.83;100.00;99010.97;10288381;28;20035;-73
2021/11/06 21:48:17;;;;;;;17.20;12.50;;;;;;;4.87;100.00;98993.78;10290898;28;20041;-74
2021/11/06 21:53:22;;;;;;;18.05;12.73;;;;;;;4.87;100.00;98988.44;10282453;28;20540;-74
2021/11/06 21:58:25;;;;;;;19.23;13.40;;;;;;;4.86;100.00;98978.72;10283689;28;20423;-77
2021/11/06 22:03:28;;;;;;;17.92;12.75;;;;;;;4.87;100.00;98969.75;10285885;28;20048;-73
2021/11/06 22:08:32;;;;;;;21.05;13.50;;;;;;;4.88;100.00;98962.56;10279777;28;20046;-71
2021/11/06 22:13:36;;;;;;;18.00;12.27;;;;;;;4.89;100.00;98948.25;10277702;28;20507;-75
2021/11/06 22:18:41;;;;;;;20.30;12.85;;;;;;;4.94;100.00;98948.75;10266364;28;21194;-74
2021/11/06 22:23:47;;;;;;;17.75;12.45;;;;;;;5.02;100.00;98943.72;10285949;28;20039;-73
2021/11/06 22:28:51;;;;;;;19.20;12.07;;;;;;;5.06;100.00;98928.31;10266530;28;20566;-74
2021/11/06 22:33:56;;;;;;;15.73;11.82;;;;;;;5.07;100.00;98911.34;10276787;28;20482;-79
2021/11/06 22:39:02;;;;;;;15.68;11.82;;;;;;;5.11;100.00;98914.63;10264534;28;20062;-76
2021/11/06 22:44:06;;;;;;;15.43;11.05;;;;;;;5.17;100.00;98912.34;10274499;28;20046;-75
2021/11/06 22:49:09;;;;;;;14.40;10.60;;;;;;;5.23;100.00;98905.69;10246486;23;20060;-61
2021/11/06 22:54:15;;;;;;;16.10;10.80;;;;;;;5.26;100.00;98900.13;10267633;28;20051;-60
2021/11/06 22:59:19;;;;;;;15.27;11.77;;;;;;;5.29;100.00;98888.34;10264475;28;20807;-59
2021/11/06 23:04:28;;;;;;;18.98;11.20;;;;;;;5.39;100.00;98855.50;10260030;28;20109;-59
2021/11/06 23:09:34;;;;;;;15.02;10.73;;;;;;;5.43;100.00;98866.78;10270063;28;20043;-59
2021/11/06 23:14:37;;;;;;;14.60;11.23;;;;;;;5.45;100.00;98842.59;10259643;28;20134;-60